sensor_id;sensor_type;location;lat;lon;timestamp;P1;durP1;ratioP1;P2;durP2;ratioP2
55641;SDS011;41509;53.108;6.100;2023-05-08T00:00:23;9.55;;;6.95;;
55641;SDS011;41509;53.108;6.100;2023-05-08T00:02:48;9.27;;;6.53;;
55641;SDS011;41509;53.108;6.100;2023-05-08T00:05:14;11.83;;;6.50;;
55641;SDS011;41509;53.108;6.100;2023-05-08T00:07:40;10.73;;;6.97;;
55641;SDS011;41509;53.108;6.100;2023-05-08T00:10:06;10.43;;;7.10;;
55641;SDS011;41509;53.108;6.100;2023-05-08T00:12:32;10.02;;;7.07;;
55641;SDS011;41509;53.108;6.100;2023-05-08T00:14:58;10.93;;;7.53;;
55641;SDS011;41509;53.108;6.100;2023-05-08T00:17:24;10.52;;;7.05;;
55641;SDS011;41509;53.108;6.100;2023-05-08T00:19:50;11.85;;;7.45;;
55641;SDS011;41509;53.108;6.100;2023-05-08T00:24:42;10.57;;;6.65;;
55641;SDS011;41509;53.108;6.100;2023-05-08T00:27:11;10.15;;;6.50;;
55641;SDS011;41509;53.108;6.100;2023-05-08T00:29:37;11.07;;;7.50;;
55641;SDS011;41509;53.108;6.100;2023-05-08T00:32:04;11.65;;;7.13;;
55641;SDS011;41509;53.108;6.100;2023-05-08T00:34:33;12.45;;;7.82;;
55641;SDS011;41509;53.108;6.100;2023-05-08T00:37:00;10.80;;;7.45;;
55641;SDS011;41509;53.108;6.100;2023-05-08T00:39:26;11.68;;;7.60;;
55641;SDS011;41509;53.108;6.100;2023-05-08T00:41:52;12.13;;;7.20;;
55641;SDS011;41509;53.108;6.100;2023-05-08T00:44:18;10.67;;;6.50;;
55641;SDS011;41509;53.108;6.100;2023-05-08T00:46:44;11.33;;;7.60;;
55641;SDS011;41509;53.108;6.100;2023-05-08T00:49:13;12.13;;;7.22;;
55641;SDS011;41509;53.108;6.100;2023-05-08T00:51:40;12.48;;;7.60;;
55641;SDS011;41509;53.108;6.100;2023-05-08T00:54:08;11.10;;;7.72;;
55641;SDS011;41509;53.108;6.100;2023-05-08T00:56:37;11.88;;;7.65;;
55641;SDS011;41509;53.108;6.100;2023-05-08T00:59:03;11.85;;;7.70;;
55641;SDS011;41509;53.108;6.100;2023-05-08T01:01:33;11.43;;;7.47;;
55641;SDS011;41509;53.108;6.100;2023-05-08T01:04:04;14.68;;;7.93;;
55641;SDS011;41509;53.108;6.100;2023-05-08T01:06:30;11.23;;;7.68;;
55641;SDS011;41509;53.108;6.100;2023-05-08T01:08:58;11.82;;;7.85;;
55641;SDS011;41509;53.108;6.100;2023-05-08T01:11:33;14.35;;;8.48;;
55641;SDS011;41509;53.108;6.100;2023-05-08T01:33:35;13.43;;;7.82;;
55641;SDS011;41509;53.108;6.100;2023-05-08T01:36:15;11.43;;;7.80;;
55641;SDS011;41509;53.108;6.100;2023-05-08T01:39:00;14.38;;;8.50;;
55641;SDS011;41509;53.108;6.100;2023-05-08T01:41:32;11.60;;;7.55;;
55641;SDS011;41509;53.108;6.100;2023-05-08T01:44:17;17.80;;;9.68;;
55641;SDS011;41509;53.108;6.100;2023-05-08T01:46:47;13.70;;;8.40;;
55641;SDS011;41509;53.108;6.100;2023-05-08T01:52:05;12.35;;;8.00;;
55641;SDS011;41509;53.108;6.100;2023-05-08T01:54:42;12.98;;;8.73;;
55641;SDS011;41509;53.108;6.100;2023-05-08T01:57:29;17.90;;;9.23;;
55641;SDS011;41509;53.108;6.100;2023-05-08T02:00:01;14.32;;;9.43;;
55641;SDS011;41509;53.108;6.100;2023-05-08T02:02:29;14.02;;;8.73;;
55641;SDS011;41509;53.108;6.100;2023-05-08T02:04:56;14.10;;;8.77;;
55641;SDS011;41509;53.108;6.100;2023-05-08T02:07:23;13.88;;;9.18;;
55641;SDS011;41509;53.108;6.100;2023-05-08T02:09:49;11.15;;;7.78;;
55641;SDS011;41509;53.108;6.100;2023-05-08T02:12:17;15.65;;;8.95;;
55641;SDS011;41509;53.108;6.100;2023-05-08T02:14:46;13.70;;;8.50;;
55641;SDS011;41509;53.108;6.100;2023-05-08T02:17:13;12.35;;;8.05;;
55641;SDS011;41509;53.108;6.100;2023-05-08T02:19:41;12.52;;;8.30;;
55641;SDS011;41509;53.108;6.100;2023-05-08T02:22:08;14.05;;;9.18;;
55641;SDS011;41509;53.108;6.100;2023-05-08T02:24:34;14.15;;;9.55;;
55641;SDS011;41509;53.108;6.100;2023-05-08T02:27:02;13.63;;;8.98;;
55641;SDS011;41509;53.108;6.100;2023-05-08T02:29:29;14.95;;;9.20;;
55641;SDS011;41509;53.108;6.100;2023-05-08T02:31:56;14.00;;;8.57;;
55641;SDS011;41509;53.108;6.100;2023-05-08T02:34:25;16.77;;;9.05;;
55641;SDS011;41509;53.108;6.100;2023-05-08T02:36:52;14.80;;;8.80;;
55641;SDS011;41509;53.108;6.100;2023-05-08T02:39:19;13.85;;;8.13;;
55641;SDS011;41509;53.108;6.100;2023-05-08T02:41:49;13.60;;;9.05;;
55641;SDS011;41509;53.108;6.100;2023-05-08T02:44:17;14.05;;;9.25;;
55641;SDS011;41509;53.108;6.100;2023-05-08T02:46:55;16.13;;;9.07;;
55641;SDS011;41509;53.108;6.100;2023-05-08T02:49:32;13.27;;;9.07;;
55641;SDS011;41509;53.108;6.100;2023-05-08T02:52:46;13.20;;;8.55;;
55641;SDS011;41509;53.108;6.100;2023-05-08T02:55:03;13.07;;;8.40;;
55641;SDS011;41509;53.108;6.100;2023-05-08T02:57:45;14.57;;;8.70;;
55641;SDS011;41509;53.108;6.100;2023-05-08T03:02:49;12.40;;;8.18;;
55641;SDS011;41509;53.108;6.100;2023-05-08T03:07:49;13.68;;;8.55;;
55641;SDS011;41509;53.108;6.100;2023-05-08T03:10:18;12.65;;;8.35;;
55641;SDS011;41509;53.108;6.100;2023-05-08T03:12:48;15.77;;;8.82;;
55641;SDS011;41509;53.108;6.100;2023-05-08T03:15:21;14.52;;;9.48;;
55641;SDS011;41509;53.108;6.100;2023-05-08T03:17:57;13.23;;;8.57;;
55641;SDS011;41509;53.108;6.100;2023-05-08T03:20:31;11.77;;;8.57;;
55641;SDS011;41509;53.108;6.100;2023-05-08T03:23:01;12.30;;;8.32;;
55641;SDS011;41509;53.108;6.100;2023-05-08T03:25:28;15.38;;;9.07;;
55641;SDS011;41509;53.108;6.100;2023-05-08T03:27:56;14.52;;;8.85;;
55641;SDS011;41509;53.108;6.100;2023-05-08T03:30:24;12.73;;;8.00;;
55641;SDS011;41509;53.108;6.100;2023-05-08T03:32:51;14.05;;;8.80;;
55641;SDS011;41509;53.108;6.100;2023-05-08T03:35:18;15.43;;;9.10;;
55641;SDS011;41509;53.108;6.100;2023-05-08T03:37:48;13.20;;;8.43;;
55641;SDS011;41509;53.108;6.100;2023-05-08T03:40:13;14.77;;;8.85;;
55641;SDS011;41509;53.108;6.100;2023-05-08T03:42:39;13.98;;;8.60;;
55641;SDS011;41509;53.108;6.100;2023-05-08T03:47:35;14.18;;;8.57;;
55641;SDS011;41509;53.108;6.100;2023-05-08T03:50:02;12.60;;;8.32;;
55641;SDS011;41509;53.108;6.100;2023-05-08T03:52:28;13.57;;;9.50;;
55641;SDS011;41509;53.108;6.100;2023-05-08T03:54:56;15.27;;;9.75;;
55641;SDS011;41509;53.108;6.100;2023-05-08T03:57:26;14.35;;;9.40;;
55641;SDS011;41509;53.108;6.100;2023-05-08T04:00:13;14.77;;;9.38;;
55641;SDS011;41509;53.108;6.100;2023-05-08T04:03:10;13.25;;;8.32;;
55641;SDS011;41509;53.108;6.100;2023-05-08T04:08:24;15.73;;;8.75;;
55641;SDS011;41509;53.108;6.100;2023-05-08T04:10:57;14.48;;;8.50;;
55641;SDS011;41509;53.108;6.100;2023-05-08T04:13:35;14.48;;;8.85;;
55641;SDS011;41509;53.108;6.100;2023-05-08T04:16:23;15.05;;;8.98;;
55641;SDS011;41509;53.108;6.100;2023-05-08T04:18:53;15.45;;;9.90;;
55641;SDS011;41509;53.108;6.100;2023-05-08T04:21:25;18.20;;;9.90;;
55641;SDS011;41509;53.108;6.100;2023-05-08T04:23:53;13.68;;;8.70;;
55641;SDS011;41509;53.108;6.100;2023-05-08T04:26:25;14.25;;;8.73;;
55641;SDS011;41509;53.108;6.100;2023-05-08T04:28:55;14.55;;;9.23;;
55641;SDS011;41509;53.108;6.100;2023-05-08T04:31:21;14.10;;;9.15;;
55641;SDS011;41509;53.108;6.100;2023-05-08T04:33:52;15.63;;;9.68;;
55641;SDS011;41509;53.108;6.100;2023-05-08T04:38:44;12.82;;;8.10;;
55641;SDS011;41509;53.108;6.100;2023-05-08T04:41:10;13.77;;;8.23;;
55641;SDS011;41509;53.108;6.100;2023-05-08T04:43:35;15.98;;;8.65;;
55641;SDS011;41509;53.108;6.100;2023-05-08T04:46:01;12.70;;;8.18;;
55641;SDS011;41509;53.108;6.100;2023-05-08T04:48:29;13.88;;;8.77;;
55641;SDS011;41509;53.108;6.100;2023-05-08T04:50:57;13.50;;;8.23;;
55641;SDS011;41509;53.108;6.100;2023-05-08T04:53:23;12.25;;;8.20;;
55641;SDS011;41509;53.108;6.100;2023-05-08T04:55:48;13.63;;;8.63;;
55641;SDS011;41509;53.108;6.100;2023-05-08T04:58:14;13.27;;;8.30;;
55641;SDS011;41509;53.108;6.100;2023-05-08T05:00:42;14.77;;;8.75;;
55641;SDS011;41509;53.108;6.100;2023-05-08T05:03:07;14.17;;;8.67;;
55641;SDS011;41509;53.108;6.100;2023-05-08T05:05:34;13.13;;;7.97;;
55641;SDS011;41509;53.108;6.100;2023-05-08T05:08:02;15.57;;;8.65;;
55641;SDS011;41509;53.108;6.100;2023-05-08T05:10:28;13.20;;;8.63;;
55641;SDS011;41509;53.108;6.100;2023-05-08T05:12:53;12.83;;;7.93;;
55641;SDS011;41509;53.108;6.100;2023-05-08T05:15:19;14.40;;;9.35;;
55641;SDS011;41509;53.108;6.100;2023-05-08T05:17:45;11.80;;;7.95;;
55641;SDS011;41509;53.108;6.100;2023-05-08T05:20:11;11.18;;;7.32;;
55641;SDS011;41509;53.108;6.100;2023-05-08T05:22:37;12.27;;;8.27;;
55641;SDS011;41509;53.108;6.100;2023-05-08T05:25:03;11.60;;;7.73;;
55641;SDS011;41509;53.108;6.100;2023-05-08T05:27:29;13.77;;;8.38;;
55641;SDS011;41509;53.108;6.100;2023-05-08T05:29:57;14.57;;;8.70;;
55641;SDS011;41509;53.108;6.100;2023-05-08T05:32:23;13.43;;;8.47;;
55641;SDS011;41509;53.108;6.100;2023-05-08T05:34:51;13.38;;;8.02;;
55641;SDS011;41509;53.108;6.100;2023-05-08T05:39:43;11.60;;;7.30;;
55641;SDS011;41509;53.108;6.100;2023-05-08T05:42:09;14.38;;;8.07;;
55641;SDS011;41509;53.108;6.100;2023-05-08T05:44:38;11.50;;;7.45;;
55641;SDS011;41509;53.108;6.100;2023-05-08T05:47:03;11.27;;;7.13;;
55641;SDS011;41509;53.108;6.100;2023-05-08T05:49:29;12.25;;;7.55;;
55641;SDS011;41509;53.108;6.100;2023-05-08T05:52:00;13.15;;;8.30;;
55641;SDS011;41509;53.108;6.100;2023-05-08T05:54:26;11.93;;;8.47;;
55641;SDS011;41509;53.108;6.100;2023-05-08T05:56:52;12.17;;;8.20;;
55641;SDS011;41509;53.108;6.100;2023-05-08T05:59:17;12.60;;;7.83;;
55641;SDS011;41509;53.108;6.100;2023-05-08T06:01:43;11.83;;;7.63;;
55641;SDS011;41509;53.108;6.100;2023-05-08T06:04:09;12.65;;;8.43;;
55641;SDS011;41509;53.108;6.100;2023-05-08T06:06:35;14.87;;;8.20;;
55641;SDS011;41509;53.108;6.100;2023-05-08T06:09:03;12.67;;;8.07;;
55641;SDS011;41509;53.108;6.100;2023-05-08T06:11:30;12.13;;;7.75;;
55641;SDS011;41509;53.108;6.100;2023-05-08T06:13:56;11.45;;;7.80;;
55641;SDS011;41509;53.108;6.100;2023-05-08T06:16:22;10.90;;;7.20;;
55641;SDS011;41509;53.108;6.100;2023-05-08T06:18:49;11.82;;;7.90;;
55641;SDS011;41509;53.108;6.100;2023-05-08T06:21:15;11.63;;;7.65;;
55641;SDS011;41509;53.108;6.100;2023-05-08T06:23:41;14.48;;;8.35;;
55641;SDS011;41509;53.108;6.100;2023-05-08T06:26:06;12.70;;;8.35;;
55641;SDS011;41509;53.108;6.100;2023-05-08T06:28:38;13.05;;;8.35;;
55641;SDS011;41509;53.108;6.100;2023-05-08T06:31:10;13.05;;;8.40;;
55641;SDS011;41509;53.108;6.100;2023-05-08T06:33:38;13.52;;;7.90;;
55641;SDS011;41509;53.108;6.100;2023-05-08T06:36:04;12.43;;;8.43;;
55641;SDS011;41509;53.108;6.100;2023-05-08T06:40:59;12.45;;;7.78;;
55641;SDS011;41509;53.108;6.100;2023-05-08T06:43:34;12.23;;;7.65;;
55641;SDS011;41509;53.108;6.100;2023-05-08T06:45:59;12.68;;;7.68;;
55641;SDS011;41509;53.108;6.100;2023-05-08T06:48:25;14.27;;;7.88;;
55641;SDS011;41509;53.108;6.100;2023-05-08T06:50:53;11.50;;;8.23;;
55641;SDS011;41509;53.108;6.100;2023-05-08T06:55:45;12.25;;;7.90;;
55641;SDS011;41509;53.108;6.100;2023-05-08T06:58:13;12.07;;;7.47;;
55641;SDS011;41509;53.108;6.100;2023-05-08T07:00:42;14.63;;;7.72;;
55641;SDS011;41509;53.108;6.100;2023-05-08T07:03:07;13.20;;;8.40;;
55641;SDS011;41509;53.108;6.100;2023-05-08T07:05:33;12.05;;;8.10;;
55641;SDS011;41509;53.108;6.100;2023-05-08T07:07:59;13.40;;;8.43;;
55641;SDS011;41509;53.108;6.100;2023-05-08T07:10:24;13.57;;;8.33;;
55641;SDS011;41509;53.108;6.100;2023-05-08T07:12:50;13.20;;;7.70;;
55641;SDS011;41509;53.108;6.100;2023-05-08T07:15:16;14.52;;;8.48;;
55641;SDS011;41509;53.108;6.100;2023-05-08T07:17:44;14.65;;;9.05;;
55641;SDS011;41509;53.108;6.100;2023-05-08T07:20:13;11.40;;;7.85;;
55641;SDS011;41509;53.108;6.100;2023-05-08T07:22:42;10.48;;;7.25;;
55641;SDS011;41509;53.108;6.100;2023-05-08T07:25:08;15.15;;;8.35;;
55641;SDS011;41509;53.108;6.100;2023-05-08T07:27:37;12.57;;;7.55;;
55641;SDS011;41509;53.108;6.100;2023-05-08T07:30:05;12.40;;;7.82;;
55641;SDS011;41509;53.108;6.100;2023-05-08T07:32:31;13.02;;;7.85;;
55641;SDS011;41509;53.108;6.100;2023-05-08T07:35:01;10.82;;;7.55;;
55641;SDS011;41509;53.108;6.100;2023-05-08T07:37:27;14.18;;;9.02;;
55641;SDS011;41509;53.108;6.100;2023-05-08T07:39:56;13.18;;;8.82;;
55641;SDS011;41509;53.108;6.100;2023-05-08T07:42:25;13.27;;;8.25;;
55641;SDS011;41509;53.108;6.100;2023-05-08T07:44:50;13.13;;;8.40;;
55641;SDS011;41509;53.108;6.100;2023-05-08T07:47:19;12.47;;;7.87;;
55641;SDS011;41509;53.108;6.100;2023-05-08T07:49:48;12.00;;;8.27;;
55641;SDS011;41509;53.108;6.100;2023-05-08T07:52:17;15.68;;;8.50;;
55641;SDS011;41509;53.108;6.100;2023-05-08T07:54:42;12.88;;;8.77;;
55641;SDS011;41509;53.108;6.100;2023-05-08T07:57:11;13.73;;;7.67;;
55641;SDS011;41509;53.108;6.100;2023-05-08T07:59:40;11.57;;;7.43;;
55641;SDS011;41509;53.108;6.100;2023-05-08T08:02:08;16.85;;;9.65;;
55641;SDS011;41509;53.108;6.100;2023-05-08T08:04:34;12.02;;;7.45;;
55641;SDS011;41509;53.108;6.100;2023-05-08T08:07:03;16.50;;;8.67;;
55641;SDS011;41509;53.108;6.100;2023-05-08T08:09:31;12.98;;;8.20;;
55641;SDS011;41509;53.108;6.100;2023-05-08T08:12:00;13.85;;;8.50;;
55641;SDS011;41509;53.108;6.100;2023-05-08T08:14:26;13.27;;;8.60;;
55641;SDS011;41509;53.108;6.100;2023-05-08T08:16:54;14.15;;;8.52;;
55641;SDS011;41509;53.108;6.100;2023-05-08T08:19:23;13.45;;;8.43;;
55641;SDS011;41509;53.108;6.100;2023-05-08T08:21:52;13.98;;;8.40;;
55641;SDS011;41509;53.108;6.100;2023-05-08T08:24:17;11.75;;;8.35;;
55641;SDS011;41509;53.108;6.100;2023-05-08T08:26:47;11.93;;;8.25;;
55641;SDS011;41509;53.108;6.100;2023-05-08T08:29:19;14.18;;;8.32;;
55641;SDS011;41509;53.108;6.100;2023-05-08T08:31:45;13.10;;;8.23;;
55641;SDS011;41509;53.108;6.100;2023-05-08T08:34:10;14.65;;;9.10;;
55641;SDS011;41509;53.108;6.100;2023-05-08T08:36:37;13.33;;;8.87;;
55641;SDS011;41509;53.108;6.100;2023-05-08T08:39:03;15.63;;;9.68;;
55641;SDS011;41509;53.108;6.100;2023-05-08T08:41:29;13.45;;;8.85;;
55641;SDS011;41509;53.108;6.100;2023-05-08T08:43:55;11.90;;;8.60;;
55641;SDS011;41509;53.108;6.100;2023-05-08T08:46:24;13.57;;;8.98;;
55641;SDS011;41509;53.108;6.100;2023-05-08T08:48:52;16.40;;;9.13;;
55641;SDS011;41509;53.108;6.100;2023-05-08T08:51:35;14.00;;;8.50;;
55641;SDS011;41509;53.108;6.100;2023-05-08T08:54:10;12.95;;;8.50;;
55641;SDS011;41509;53.108;6.100;2023-05-08T08:56:40;12.32;;;7.68;;
55641;SDS011;41509;53.108;6.100;2023-05-08T08:59:08;13.20;;;8.55;;
55641;SDS011;41509;53.108;6.100;2023-05-08T09:01:37;12.80;;;8.60;;
55641;SDS011;41509;53.108;6.100;2023-05-08T09:04:03;13.02;;;8.02;;
55641;SDS011;41509;53.108;6.100;2023-05-08T09:06:30;12.88;;;8.45;;
55641;SDS011;41509;53.108;6.100;2023-05-08T09:08:59;12.82;;;8.85;;
55641;SDS011;41509;53.108;6.100;2023-05-08T09:11:26;13.60;;;8.52;;
55641;SDS011;41509;53.108;6.100;2023-05-08T09:13:55;13.85;;;8.25;;
55641;SDS011;41509;53.108;6.100;2023-05-08T09:16:22;13.23;;;8.93;;
55641;SDS011;41509;53.108;6.100;2023-05-08T09:18:48;13.25;;;9.70;;
55641;SDS011;41509;53.108;6.100;2023-05-08T09:21:14;13.35;;;9.35;;
55641;SDS011;41509;53.108;6.100;2023-05-08T09:26:38;12.32;;;8.85;;
55641;SDS011;41509;53.108;6.100;2023-05-08T09:29:19;13.88;;;9.00;;
55641;SDS011;41509;53.108;6.100;2023-05-08T09:31:49;13.05;;;9.43;;
55641;SDS011;41509;53.108;6.100;2023-05-08T09:36:55;16.50;;;10.77;;
55641;SDS011;41509;53.108;6.100;2023-05-08T09:39:29;13.85;;;9.23;;
55641;SDS011;41509;53.108;6.100;2023-05-08T09:42:04;14.07;;;9.65;;
55641;SDS011;41509;53.108;6.100;2023-05-08T09:44:52;14.32;;;9.85;;
55641;SDS011;41509;53.108;6.100;2023-05-08T09:47:18;16.15;;;9.98;;
55641;SDS011;41509;53.108;6.100;2023-05-08T09:52:32;12.48;;;9.02;;
55641;SDS011;41509;53.108;6.100;2023-05-08T09:54:58;16.55;;;9.55;;
55641;SDS011;41509;53.108;6.100;2023-05-08T09:57:27;16.20;;;9.70;;
55641;SDS011;41509;53.108;6.100;2023-05-08T10:03:25;14.70;;;9.95;;
55641;SDS011;41509;53.108;6.100;2023-05-08T10:05:32;14.05;;;9.52;;
55641;SDS011;41509;53.108;6.100;2023-05-08T10:08:20;16.63;;;10.82;;
55641;SDS011;41509;53.108;6.100;2023-05-08T10:10:47;15.43;;;9.43;;
55641;SDS011;41509;53.108;6.100;2023-05-08T10:13:13;13.52;;;9.70;;
55641;SDS011;41509;53.108;6.100;2023-05-08T10:18:06;13.70;;;9.63;;
55641;SDS011;41509;53.108;6.100;2023-05-08T10:20:33;13.57;;;9.35;;
55641;SDS011;41509;53.108;6.100;2023-05-08T10:23:02;17.33;;;9.98;;
55641;SDS011;41509;53.108;6.100;2023-05-08T10:25:35;13.52;;;9.80;;
55641;SDS011;41509;53.108;6.100;2023-05-08T10:28:17;14.32;;;9.52;;
55641;SDS011;41509;53.108;6.100;2023-05-08T10:30:48;15.68;;;10.43;;
55641;SDS011;41509;53.108;6.100;2023-05-08T10:33:15;13.95;;;9.60;;
55641;SDS011;41509;53.108;6.100;2023-05-08T10:35:47;14.88;;;10.27;;
55641;SDS011;41509;53.108;6.100;2023-05-08T10:38:14;15.07;;;9.77;;
55641;SDS011;41509;53.108;6.100;2023-05-08T10:40:40;14.07;;;9.93;;
55641;SDS011;41509;53.108;6.100;2023-05-08T10:43:07;13.30;;;9.40;;
55641;SDS011;41509;53.108;6.100;2023-05-08T10:45:34;12.77;;;9.05;;
55641;SDS011;41509;53.108;6.100;2023-05-08T10:48:10;16.25;;;10.18;;
55641;SDS011;41509;53.108;6.100;2023-05-08T10:53:28;12.98;;;8.65;;
55641;SDS011;41509;53.108;6.100;2023-05-08T10:56:02;13.32;;;9.27;;
55641;SDS011;41509;53.108;6.100;2023-05-08T10:58:29;12.05;;;8.95;;
55641;SDS011;41509;53.108;6.100;2023-05-08T11:03:28;14.25;;;9.25;;
55641;SDS011;41509;53.108;6.100;2023-05-08T11:05:55;15.85;;;9.00;;
55641;SDS011;41509;53.108;6.100;2023-05-08T11:08:23;12.23;;;8.85;;
55641;SDS011;41509;53.108;6.100;2023-05-08T11:10:57;16.08;;;9.20;;
55641;SDS011;41509;53.108;6.100;2023-05-08T11:13:29;12.55;;;9.30;;
55641;SDS011;41509;53.108;6.100;2023-05-08T11:16:01;14.15;;;9.23;;
55641;SDS011;41509;53.108;6.100;2023-05-08T11:18:28;13.85;;;9.35;;
55641;SDS011;41509;53.108;6.100;2023-05-08T11:20:55;12.02;;;8.95;;
55641;SDS011;41509;53.108;6.100;2023-05-08T11:23:31;13.55;;;9.70;;
55641;SDS011;41509;53.108;6.100;2023-05-08T11:28:27;13.07;;;8.15;;
55641;SDS011;41509;53.108;6.100;2023-05-08T11:31:00;14.43;;;9.85;;
55641;SDS011;41509;53.108;6.100;2023-05-08T11:33:28;12.60;;;8.85;;
55641;SDS011;41509;53.108;6.100;2023-05-08T11:35:56;13.25;;;8.88;;
55641;SDS011;41509;53.108;6.100;2023-05-08T11:38:35;14.25;;;8.85;;
55641;SDS011;41509;53.108;6.100;2023-05-08T11:41:21;13.52;;;9.45;;
55641;SDS011;41509;53.108;6.100;2023-05-08T11:46:48;12.35;;;8.38;;
55641;SDS011;41509;53.108;6.100;2023-05-08T11:49:17;11.25;;;8.10;;
55641;SDS011;41509;53.108;6.100;2023-05-08T11:51:45;14.00;;;9.32;;
55641;SDS011;41509;53.108;6.100;2023-05-08T11:54:13;12.13;;;9.27;;
55641;SDS011;41509;53.108;6.100;2023-05-08T11:56:41;16.20;;;9.57;;
55641;SDS011;41509;53.108;6.100;2023-05-08T12:01:33;14.25;;;9.70;;
55641;SDS011;41509;53.108;6.100;2023-05-08T12:04:03;13.50;;;9.77;;
55641;SDS011;41509;53.108;6.100;2023-05-08T12:06:34;15.55;;;9.18;;
55641;SDS011;41509;53.108;6.100;2023-05-08T12:09:11;17.25;;;9.95;;
55641;SDS011;41509;53.108;6.100;2023-05-08T12:11:42;14.98;;;9.70;;
55641;SDS011;41509;53.108;6.100;2023-05-08T12:14:09;15.65;;;10.05;;
55641;SDS011;41509;53.108;6.100;2023-05-08T12:16:40;14.95;;;9.93;;
55641;SDS011;41509;53.108;6.100;2023-05-08T12:19:10;13.93;;;9.27;;
55641;SDS011;41509;53.108;6.100;2023-05-08T12:21:37;16.15;;;9.23;;
55641;SDS011;41509;53.108;6.100;2023-05-08T12:24:06;13.90;;;9.75;;
55641;SDS011;41509;53.108;6.100;2023-05-08T12:26:35;13.52;;;9.52;;
55641;SDS011;41509;53.108;6.100;2023-05-08T12:29:05;13.77;;;9.88;;
55641;SDS011;41509;53.108;6.100;2023-05-08T12:31:34;18.58;;;10.68;;
55641;SDS011;41509;53.108;6.100;2023-05-08T12:34:01;14.40;;;10.30;;
55641;SDS011;41509;53.108;6.100;2023-05-08T12:36:32;19.65;;;10.75;;
55641;SDS011;41509;53.108;6.100;2023-05-08T12:39:11;16.85;;;10.15;;
55641;SDS011;41509;53.108;6.100;2023-05-08T12:41:50;13.82;;;9.98;;
55641;SDS011;41509;53.108;6.100;2023-05-08T12:44:23;16.65;;;10.05;;
55641;SDS011;41509;53.108;6.100;2023-05-08T12:46:56;15.35;;;10.32;;
55641;SDS011;41509;53.108;6.100;2023-05-08T12:49:25;15.98;;;10.52;;
55641;SDS011;41509;53.108;6.100;2023-05-08T12:52:02;15.07;;;9.98;;
55641;SDS011;41509;53.108;6.100;2023-05-08T12:54:32;13.48;;;9.93;;
55641;SDS011;41509;53.108;6.100;2023-05-08T12:56:58;18.15;;;10.85;;
55641;SDS011;41509;53.108;6.100;2023-05-08T13:01:55;18.98;;;11.48;;
55641;SDS011;41509;53.108;6.100;2023-05-08T13:06:56;18.45;;;12.23;;
55641;SDS011;41509;53.108;6.100;2023-05-08T13:09:21;18.25;;;11.45;;
55641;SDS011;41509;53.108;6.100;2023-05-08T13:11:47;16.30;;;11.55;;
55641;SDS011;41509;53.108;6.100;2023-05-08T13:16:42;17.77;;;11.85;;
55641;SDS011;41509;53.108;6.100;2023-05-08T13:19:09;21.05;;;13.07;;
55641;SDS011;41509;53.108;6.100;2023-05-08T13:24:00;16.35;;;11.88;;
55641;SDS011;41509;53.108;6.100;2023-05-08T13:28:54;20.15;;;13.50;;
55641;SDS011;41509;53.108;6.100;2023-05-08T13:33:45;19.33;;;12.75;;
55641;SDS011;41509;53.108;6.100;2023-05-08T13:36:11;19.58;;;12.27;;
55641;SDS011;41509;53.108;6.100;2023-05-08T13:38:39;18.08;;;12.68;;
55641;SDS011;41509;53.108;6.100;2023-05-08T13:43:30;17.98;;;12.75;;
55641;SDS011;41509;53.108;6.100;2023-05-08T13:48:21;18.17;;;13.80;;
55641;SDS011;41509;53.108;6.100;2023-05-08T13:53:13;19.65;;;12.70;;
55641;SDS011;41509;53.108;6.100;2023-05-08T13:55:38;19.08;;;12.23;;
55641;SDS011;41509;53.108;6.100;2023-05-08T13:58:06;15.80;;;12.00;;
55641;SDS011;41509;53.108;6.100;2023-05-08T14:02:58;19.13;;;11.55;;
55641;SDS011;41509;53.108;6.100;2023-05-08T14:07:49;17.75;;;11.77;;
55641;SDS011;41509;53.108;6.100;2023-05-08T14:10:15;18.40;;;12.45;;
55641;SDS011;41509;53.108;6.100;2023-05-08T14:12:44;17.08;;;11.32;;
55641;SDS011;41509;53.108;6.100;2023-05-08T14:15:10;16.20;;;11.38;;
55641;SDS011;41509;53.108;6.100;2023-05-08T14:20:01;21.83;;;14.85;;
55641;SDS011;41509;53.108;6.100;2023-05-08T14:22:28;19.48;;;13.38;;
55641;SDS011;41509;53.108;6.100;2023-05-08T14:27:19;22.15;;;14.85;;
55641;SDS011;41509;53.108;6.100;2023-05-08T14:29:44;21.80;;;15.10;;
55641;SDS011;41509;53.108;6.100;2023-05-08T14:32:10;19.35;;;13.90;;
55641;SDS011;41509;53.108;6.100;2023-05-08T14:37:01;31.10;;;19.65;;
55641;SDS011;41509;53.108;6.100;2023-05-08T14:39:27;33.50;;;22.15;;
55641;SDS011;41509;53.108;6.100;2023-05-08T14:41:52;37.03;;;24.23;;
55641;SDS011;41509;53.108;6.100;2023-05-08T14:44:18;37.20;;;24.67;;
55641;SDS011;41509;53.108;6.100;2023-05-08T14:46:43;40.92;;;23.45;;
55641;SDS011;41509;53.108;6.100;2023-05-08T14:49:09;38.30;;;23.77;;
55641;SDS011;41509;53.108;6.100;2023-05-08T14:51:35;33.47;;;22.00;;
55641;SDS011;41509;53.108;6.100;2023-05-08T14:54:00;32.88;;;20.08;;
55641;SDS011;41509;53.108;6.100;2023-05-08T14:56:26;31.90;;;20.35;;
55641;SDS011;41509;53.108;6.100;2023-05-08T14:58:52;31.63;;;20.50;;
55641;SDS011;41509;53.108;6.100;2023-05-08T15:01:19;31.92;;;21.38;;
55641;SDS011;41509;53.108;6.100;2023-05-08T15:03:48;31.75;;;21.35;;
55641;SDS011;41509;53.108;6.100;2023-05-08T15:06:20;31.23;;;20.45;;
55641;SDS011;41509;53.108;6.100;2023-05-08T15:08:47;34.65;;;21.98;;
55641;SDS011;41509;53.108;6.100;2023-05-08T15:11:13;32.35;;;22.30;;
55641;SDS011;41509;53.108;6.100;2023-05-08T15:13:38;32.72;;;21.70;;
55641;SDS011;41509;53.108;6.100;2023-05-08T15:16:04;33.65;;;21.48;;
55641;SDS011;41509;53.108;6.100;2023-05-08T15:18:30;32.55;;;21.20;;
55641;SDS011;41509;53.108;6.100;2023-05-08T15:20:58;33.00;;;21.02;;
55641;SDS011;41509;53.108;6.100;2023-05-08T15:23:24;33.85;;;21.85;;
55641;SDS011;41509;53.108;6.100;2023-05-08T15:25:50;30.98;;;20.02;;
55641;SDS011;41509;53.108;6.100;2023-05-08T15:28:16;33.15;;;21.52;;
55641;SDS011;41509;53.108;6.100;2023-05-08T15:30:45;29.33;;;18.55;;
55641;SDS011;41509;53.108;6.100;2023-05-08T15:33:11;27.80;;;18.15;;
55641;SDS011;41509;53.108;6.100;2023-05-08T15:35:40;25.63;;;17.23;;
55641;SDS011;41509;53.108;6.100;2023-05-08T15:38:06;25.40;;;15.82;;
55641;SDS011;41509;53.108;6.100;2023-05-08T15:40:32;26.67;;;16.58;;
55641;SDS011;41509;53.108;6.100;2023-05-08T15:42:58;23.75;;;16.40;;
55641;SDS011;41509;53.108;6.100;2023-05-08T15:47:49;27.70;;;17.25;;
55641;SDS011;41509;53.108;6.100;2023-05-08T15:50:16;24.98;;;15.68;;
55641;SDS011;41509;53.108;6.100;2023-05-08T15:52:44;22.92;;;15.10;;
55641;SDS011;41509;53.108;6.100;2023-05-08T15:55:10;26.98;;;16.10;;
55641;SDS011;41509;53.108;6.100;2023-05-08T15:57:38;24.63;;;16.73;;
55641;SDS011;41509;53.108;6.100;2023-05-08T16:00:04;23.63;;;16.27;;
55641;SDS011;41509;53.108;6.100;2023-05-08T16:02:30;27.15;;;15.48;;
55641;SDS011;41509;53.108;6.100;2023-05-08T16:04:56;29.48;;;17.77;;
55641;SDS011;41509;53.108;6.100;2023-05-08T16:07:22;26.55;;;17.17;;
55641;SDS011;41509;53.108;6.100;2023-05-08T16:09:50;25.35;;;16.90;;
55641;SDS011;41509;53.108;6.100;2023-05-08T16:12:16;26.15;;;17.15;;
55641;SDS011;41509;53.108;6.100;2023-05-08T16:14:43;26.48;;;16.98;;
55641;SDS011;41509;53.108;6.100;2023-05-08T16:19:38;32.20;;;18.73;;
55641;SDS011;41509;53.108;6.100;2023-05-08T16:22:04;31.35;;;20.23;;
55641;SDS011;41509;53.108;6.100;2023-05-08T16:24:31;34.58;;;19.95;;
55641;SDS011;41509;53.108;6.100;2023-05-08T16:26:57;28.55;;;19.05;;
55641;SDS011;41509;53.108;6.100;2023-05-08T16:31:51;32.42;;;21.02;;